Dornsife, PA (17823)

11:38 PM EDT del 28 Agosto 2016 (GMT -0400)
TONY | | Change Station

Alt. 820 ft 40.78 °N, 76.68 °W | Updated 1 minute ago

Partly Cloudy
Parzialmente nuvoloso
74.2 °F
Sembra 76 °F
N
0.0
Vento Variabile Vento da Nord
Gusts 0.0 mph

Oggi
Massima -- | Minima -- °F
--% Possibilità di precip.
Ieri
Massima -- | Minima -- °F
Precip. -- in
Pressione 30.17 in
Visibilità 10.0 miglia
Nuvole Alcuni 6000 ft
Indice di calore 76 °F
Punto di rugiada 63 °F
Umidità 69%
Piovosità 0.00 in
Spessore del manto nevoso Non disponibile.
6:30 AM 7:44 PM
Luna calante, 11% visible
METAR KSEG 290253Z AUTO 17005KT 10SM FEW060 23/21 A3017 RMK AO2 SLP214 T02330206 50014
Pressione 30.17 in
Visibilità 10.0 miglia
Nuvole Alcuni 6000 ft
Indice di calore 76 °F
Punto di rugiada 63 °F
Umidità 69%
Piovosità 0.00 in
Spessore del manto nevoso Non disponibile.
6:30 AM 7:44 PM
Luna calante, 11% visible
METAR KSEG 290253Z AUTO 17005KT 10SM FEW060 23/21 A3017 RMK AO2 SLP214 T02330206 50014

10-Day Weather Forecast

Almanac

Astronomia

Aug. 28, 2016 Alba Tramonto
Ora attuale
Crepuscolo civile
Crepuscolo nautico
Crepuscolo astronomico
Luna
Estensione della luce visibile
Lunghezza del giorno
Tomorrow will be .
, % of the Moon is Illuminated

Gli estremi di oggi

State Highs State Lows

Community

WunderPhotos

Upload Photos

1,935,782 foto caricate!

WunderBlog® & News

Nearby

Qualità dell'aria

  Qualità dell'aria Indice AQ Inquinante
Not available.

Profondità neve

Stazione Profondità Altitudine

Attività sismica

Città  Distanza Mag. Data & Ora
Minimo Magnitudo Mostrato è 2.5.

Temperature delle acque costiere

Località Temperatura

Stations

Stazioni meteo nelle vicinanze

Ubicazione della stazione Temp. Raffreddamento del vento Punto di rugiada Umidità Vento Precip. Alt. Aggiornato Tipo
                   

Watches & Warnings

There are currently no watches in effect.